Time;durP1;ratioP1;P1;durP2;ratioP2;P2;SDS_P1;SDS_P2;PMS_P1;PMS_P2;Temp;Humidity;BMP_temperature;BMP_pressure;BME280_temperature;BME280_humidity;BME280_pressure;Samples;Min_cycle;Max_cycle;Signal;HPM_P1;HPM_P2
2023/12/15 00:01:05;;;;;;;41.80;21.80;;;;;;;;;;5006971;28;20077;-70
2023/12/15 00:03:31;;;;;;;37.17;20.60;;;;;;;;;;4989315;28;20046;-70
2023/12/15 00:05:57;;;;;;;41.72;22.67;;;;;;;;;;5006711;28;20042;-70
2023/12/15 00:08:24;;;;;;;44.38;23.48;;;;;;;;;;4988776;28;20050;-70
2023/12/15 00:10:50;;;;;;;53.28;23.02;;;;;;;;;;4989849;28;20469;-70
2023/12/15 00:13:16;;;;;;;43.75;22.90;;;;;;;;;;4989088;28;20104;-70
2023/12/15 00:15:42;;;;;;;48.22;24.08;;;;;;;;;;4989119;28;20096;-70
2023/12/15 00:18:08;;;;;;;45.40;23.48;;;;;;;;;;4989262;28;20548;-70
2023/12/15 00:20:34;;;;;;;51.58;24.90;;;;;;;;;;4989295;28;20054;-70
2023/12/15 00:23:00;;;;;;;50.13;24.60;;;;;;;;;;4988851;28;20056;-70
2023/12/15 00:25:26;;;;;;;48.83;26.05;;;;;;;;;;4988959;28;20045;-70
2023/12/15 00:27:52;;;;;;;47.10;26.83;;;;;;;;;;5006646;28;20049;-70
2023/12/15 00:30:18;;;;;;;52.08;26.40;;;;;;;;;;4988760;28;20048;-70
2023/12/15 00:32:44;;;;;;;48.85;27.08;;;;;;;;;;4988868;28;20042;-70
2023/12/15 00:35:10;;;;;;;47.10;24.90;;;;;;;;;;4988994;28;20401;-70
2023/12/15 00:37:36;;;;;;;49.22;25.67;;;;;;;;;;4988680;28;20058;-70
2023/12/15 00:40:03;;;;;;;51.28;28.20;;;;;;;;;;5006139;28;20061;-70
2023/12/15 00:42:29;;;;;;;51.33;27.42;;;;;;;;;;5006516;28;20038;-69
2023/12/15 00:44:56;;;;;;;50.22;27.05;;;;;;;;;;5006405;28;20033;-70
2023/12/15 00:47:22;;;;;;;54.60;27.83;;;;;;;;;;5001043;28;20061;-70
2023/12/15 00:49:48;;;;;;;53.05;26.83;;;;;;;;;;4988411;28;20041;-70
2023/12/15 00:52:14;;;;;;;61.78;28.85;;;;;;;;;;4988848;28;20042;-70
2023/12/15 00:54:40;;;;;;;55.45;27.85;;;;;;;;;;4988246;28;20548;-70
2023/12/15 00:57:06;;;;;;;59.25;27.90;;;;;;;;;;5005831;28;20057;-70
2023/12/15 00:59:32;;;;;;;58.13;29.42;;;;;;;;;;4987854;28;20046;-70
2023/12/15 01:01:58;;;;;;;60.42;30.13;;;6.60;99.90;;;;;;5005967;28;20042;-70
2023/12/15 01:04:24;;;;;;;61.97;28.15;;;;;;;;;;4988187;28;20771;-70
2023/12/15 01:06:50;;;;;;;58.83;28.35;;;;;;;;;;4988092;28;20085;-70
2023/12/15 01:09:16;;;;;;;59.58;28.55;;;;;;;;;;4988544;28;20165;-70
2023/12/15 01:11:42;;;;;;;64.82;27.90;;;;;;;;;;4988334;28;20046;-70
2023/12/15 01:14:08;;;;;;;59.55;28.23;;;;;;;;;;4988404;28;20053;-70
2023/12/15 01:16:34;;;;;;;65.53;30.00;;;;;;;;;;4988402;28;20485;-70
2023/12/15 01:19:00;;;;;;;59.97;30.25;;;;;;;;;;5005067;28;20049;-70
2023/12/15 01:21:26;;;;;;;64.30;30.08;;;;;;;;;;4987798;28;20576;-70
2023/12/15 01:23:52;;;;;;;66.78;31.67;;;;;;;;;;5005446;28;20050;-70
2023/12/15 01:26:18;;;;;;;66.43;29.40;;;;;;;;;;5006142;28;20045;-70
2023/12/15 01:28:44;;;;;;;72.35;29.67;;;;;;;;;;4986940;28;20497;-70
2023/12/15 01:31:10;;;;;;;61.20;29.35;;;;;;;;;;4988228;28;20409;-70
2023/12/15 01:33:36;;;;;;;75.10;30.52;;;;;;;;;;4987664;28;20041;-70
2023/12/15 01:36:02;;;;;;;65.10;27.98;;;;;;;;;;4987964;28;20058;-70
2023/12/15 01:38:28;;;;;;;59.85;28.45;;;;;;;;;;4987721;28;20085;-70
2023/12/15 01:40:54;;;;;;;68.82;30.25;;;;;;;;;;4987871;28;20140;-70
2023/12/15 01:43:20;;;;;;;62.35;28.85;;;;;;;;;;4987722;28;20065;-70
2023/12/15 01:45:46;;;;;;;66.07;29.98;;;;;;;;;;4971362;28;20506;-70
2023/12/15 01:48:12;;;;;;;69.38;30.88;;;;;;;;;;4987259;28;20050;-70
2023/12/15 01:50:39;;;;;;;67.15;31.42;;;;;;;;;;5005145;28;20797;-70
2023/12/15 01:53:04;;;;;;;69.35;30.23;;;;;;;;;;4987647;28;20061;-70
2023/12/15 01:55:30;;;;;;;59.38;29.48;;;6.80;99.90;;;;;;4971301;28;20045;-70
2023/12/15 01:57:56;;;;;;;61.83;29.33;;;;;;;;;;4987946;28;20144;-70
2023/12/15 02:00:22;;;;;;;62.45;27.67;;;;;;;;;;4987445;28;20054;-70
2023/12/15 02:02:48;;;;;;;58.00;28.13;;;;;;;;;;4987492;28;20073;-70
2023/12/15 02:05:14;;;;;;;58.17;26.90;;;;;;;;;;4987476;28;20111;-70
2023/12/15 02:07:40;;;;;;;54.72;28.25;;;;;;;;;;4987198;28;20049;-70
2023/12/15 02:10:06;;;;;;;62.72;29.70;;;;;;;;;;5004205;28;20100;-70
2023/12/15 02:12:32;;;;;;;58.70;27.48;;;;;;;;;;5004907;28;20041;-70
2023/12/15 02:14:58;;;;;;;51.13;24.95;;;;;;;;;;4986681;28;20065;-70
2023/12/15 02:17:24;;;;;;;51.03;26.88;;;;;;;;;;4987315;28;20812;-70
2023/12/15 02:19:50;;;;;;;54.15;27.15;;;7.10;99.90;;;;;;4986679;28;20042;-70
2023/12/15 02:22:16;;;;;;;61.78;28.27;;;;;;;;;;4987078;28;20050;-70
2023/12/15 02:24:41;;;;;;;56.08;28.33;;;7.40;99.90;;;;;;5004321;28;20401;-70
2023/12/15 02:27:07;;;;;;;50.38;26.60;;;;;;;;;;5004137;28;20061;-70
2023/12/15 02:29:34;;;;;;;58.47;27.23;;;;;;;;;;4986811;28;20045;-70
2023/12/15 02:32:00;;;;;;;52.72;26.00;;;;;;;;;;4986720;28;20053;-70
2023/12/15 02:34:27;;;;;;;50.35;27.05;;;;;;;;;;5004022;28;20045;-70
2023/12/15 02:36:53;;;;;;;53.35;26.88;;;;;;;;;;5003241;28;20093;-70
2023/12/15 02:39:19;;;;;;;47.58;25.38;;;;;;;;;;4986625;28;20128;-70
2023/12/15 02:41:45;;;;;;;54.10;25.33;;;;;;;;;;5004596;28;20811;-70
2023/12/15 02:44:11;;;;;;;50.65;26.77;;;;;;;;;;4986130;28;20511;-70
2023/12/15 02:46:37;;;;;;;58.53;25.88;;;;;;;;;;4986273;28;20049;-70
2023/12/15 02:49:03;;;;;;;47.33;25.92;;;;;;;;;;4985806;28;20045;-70
2023/12/15 02:51:30;;;;;;;49.70;24.20;;;;;;;;;;4986079;28;20409;-70
2023/12/15 02:54:00;;;;;;;48.45;24.02;;;;;;;;;;4985620;28;20042;-70
2023/12/15 02:56:26;;;;;;;52.40;25.88;;;;;;;;;;4984801;28;20050;-70
2023/12/15 02:58:52;;;;;;;41.17;23.02;;;;;;;;;;4985619;28;20041;-70
2023/12/15 03:01:18;;;;;;;46.65;23.13;;;;;;;;;;5003034;28;20080;-70
2023/12/15 03:03:44;;;;;;;44.28;21.70;;;;;;;;;;4985520;28;20049;-70
2023/12/15 03:06:10;;;;;;;42.25;22.42;;;;;;;;;;4985724;28;20056;-70
2023/12/15 03:08:36;;;;;;;42.83;21.55;;;;;;;;;;4985556;28;20791;-70
2023/12/15 03:11:03;;;;;;;48.17;23.55;;;;;;;;;;5003076;28;20056;-70
2023/12/15 03:13:29;;;;;;;45.40;21.73;;;;;;;;;;5002961;28;20064;-70
2023/12/15 03:16:03;;;;;;;48.47;22.90;;;;;;;;;;4985311;28;20057;-70
2023/12/15 03:18:29;;;;;;;43.77;22.03;;;;;;;;;;4985871;28;20045;-70
2023/12/15 03:20:55;;;;;;;50.00;22.48;;;;;;;;;;4984685;28;20056;-70
2023/12/15 03:23:21;;;;;;;47.45;24.25;;;;;;;;;;4986257;28;20053;-70
2023/12/15 03:25:47;;;;;;;47.45;22.25;;;;;;;;;;4985307;28;20493;-70
2023/12/15 03:28:14;;;;;;;41.83;21.77;;;;;;;;;;4985450;28;20123;-70
2023/12/15 03:30:41;;;;;;;45.08;21.40;;;;;;;;;;4985247;28;20445;-70
2023/12/15 03:33:07;;;;;;;48.25;23.23;;;;;;;;;;4985730;28;20461;-70
2023/12/15 03:35:32;;;;;;;39.85;21.67;;;;;;;;;;5002195;28;20049;-70
2023/12/15 03:37:58;;;;;;;42.83;22.70;;;;;;;;;;4985131;28;20050;-70
2023/12/15 03:40:24;;;;;;;45.22;21.27;;;;;;;;;;4984662;28;20945;-70
2023/12/15 03:42:51;;;;;;;47.75;21.65;;;;;;;;;;5002888;28;20126;-70
2023/12/15 03:45:18;;;;;;;44.33;20.65;;;;;;;;;;4984755;28;20049;-70
2023/12/15 03:47:44;;;;;;;41.28;21.92;;;;;;;;;;4984517;28;20045;-70
2023/12/15 03:50:10;;;;;;;41.38;21.25;;;;;;;;;;4984637;28;20048;-70
2023/12/15 03:52:36;;;;;;;41.38;20.98;;;;;;;;;;4985143;28;20405;-70
2023/12/15 03:55:02;;;;;;;39.10;19.70;;;;;;;;;;4984839;28;20061;-70
2023/12/15 03:57:28;;;;;;;38.17;19.73;;;;;;;;;;5002779;28;20049;-70
2023/12/15 03:59:53;;;;;;;36.28;18.85;;;6.10;99.90;;;;;;5002797;28;20045;-70
2023/12/15 04:02:20;;;;;;;44.25;19.58;;;;;;;;;;4984850;28;20493;-70
2023/12/15 04:04:46;;;;;;;36.47;19.85;;;;;;;;;;4984849;28;20083;-70
2023/12/15 04:07:12;;;;;;;38.85;19.33;;;;;;;;;;4968224;28;20049;-70
2023/12/15 04:09:38;;;;;;;44.22;20.17;;;;;;;;;;4985171;28;20438;-70
2023/12/15 04:12:05;;;;;;;40.25;19.15;;;;;;;;;;5002768;28;20064;-70
2023/12/15 04:14:33;;;;;;;33.30;17.90;;;;;;;;;;4984907;28;20062;-70
2023/12/15 04:16:59;;;;;;;38.25;17.88;;;;;;;;;;4985011;28;20049;-70
2023/12/15 04:19:25;;;;;;;40.13;16.73;;;;;;;;;;4984963;28;20045;-70
2023/12/15 04:21:51;;;;;;;37.67;17.33;;;;;;;;;;4985374;28;20056;-70
2023/12/15 04:24:17;;;;;;;31.50;17.33;;;;;;;;;;4985197;28;20049;-70
2023/12/15 04:26:43;;;;;;;32.65;16.80;;;;;;;;;;4984734;28;20517;-70
2023/12/15 04:29:09;;;;;;;35.03;16.58;;;;;;;;;;4984733;28;20058;-70
2023/12/15 04:31:35;;;;;;;32.33;16.45;;;;;;;;;;5002881;28;20407;-70
2023/12/15 04:34:01;;;;;;;36.78;17.25;;;;;;;;;;4988106;28;20095;-70
2023/12/15 04:36:27;;;;;;;34.03;16.25;;;;;;;;;;4988140;28;20148;-70
2023/12/15 04:38:53;;;;;;;35.83;16.77;;;;;;;;;;4987980;28;20049;-70
2023/12/15 04:41:20;;;;;;;35.15;16.05;;;;;;;;;;4988482;28;20863;-70
2023/12/15 04:43:46;;;;;;;33.90;15.85;;;;;;;;;;5005961;28;20086;-70
2023/12/15 04:46:12;;;;;;;36.67;17.00;;;;;;;;;;4988513;28;20715;-70
2023/12/15 04:48:39;;;;;;;31.95;17.25;;;;;;;;;;5005995;28;20145;-70
2023/12/15 04:51:05;;;;;;;36.40;17.00;;;;;;;;;;4988347;28;20101;-70
2023/12/15 04:53:31;;;;;;;37.03;16.17;;;;;;;;;;4987911;28;20133;-70
2023/12/15 04:55:57;;;;;;;29.45;16.92;;;;;;;;;;4971957;28;20049;-70
2023/12/15 04:58:23;;;;;;;32.65;17.30;;;;;;;;;;5005533;28;20050;-70
2023/12/15 05:00:49;;;;;;;34.92;17.38;;;;;;;;;;4987545;28;20046;-70
2023/12/15 05:03:15;;;;;;;43.10;16.98;;;;;;;;;;5005138;28;20048;-70
2023/12/15 05:05:43;;;;;;;42.85;19.10;;;;;;;;;;4987830;28;20517;-70
2023/12/15 05:08:09;;;;;;;37.03;17.17;;;;;;;;;;4987399;28;20049;-70
2023/12/15 05:10:35;;;;;;;37.03;18.10;;;;;;;;;;4987634;28;20559;-70
2023/12/15 05:13:01;;;;;;;40.80;18.38;;;;;;;;;;5005654;28;20038;-70
2023/12/15 05:15:27;;;;;;;37.85;18.60;;;;;;;;;;4986880;28;20053;-70
2023/12/15 05:17:53;;;;;;;36.53;17.95;;;;;;;;;;4987381;28;20050;-70
2023/12/15 05:20:20;;;;;;;39.88;18.63;;;;;;;;;;4987384;28;20520;-70
2023/12/15 05:22:46;;;;;;;39.95;18.75;;;;;;;;;;5004842;28;20069;-70
2023/12/15 05:25:12;;;;;;;36.10;18.20;;;;;;;;;;4987000;28;20816;-70
2023/12/15 05:27:38;;;;;;;42.03;19.70;;;;;;;;;;5004674;28;20046;-70
2023/12/15 05:30:04;;;;;;;38.20;17.38;;;;;;;;;;4987079;28;20148;-70
2023/12/15 05:32:30;;;;;;;38.22;17.58;;;;;;;;;;5005028;28;20042;-70
2023/12/15 05:34:56;;;;;;;41.67;18.70;;;;;;;;;;5005027;28;20038;-70
2023/12/15 05:37:22;;;;;;;41.40;17.52;;;;;;;;;;5005421;28;20564;-70
2023/12/15 05:39:48;;;;;;;38.60;16.83;;;;;;;;;;4970282;28;20072;-72
2023/12/15 05:42:14;;;;;;;36.85;16.52;;;;;;;;;;4986636;28;20050;-70
2023/12/15 05:44:40;;;;;;;37.67;17.30;;;;;;;;;;4985740;28;20042;-70
2023/12/15 05:47:06;;;;;;;41.03;16.35;;;5.80;99.90;;;;;;5004209;28;20188;-70
2023/12/15 05:49:34;;;;;;;33.20;15.52;;;;;;;;;;4987138;28;20093;-70
2023/12/15 05:52:00;;;;;;;38.15;16.42;;;;;;;;;;4986913;28;20081;-70
2023/12/15 05:54:26;;;;;;;30.20;16.15;;;;;;;;;;4986586;28;20541;-70
2023/12/15 05:56:51;;;;;;;33.70;16.67;;;;;;;;;;4986766;28;20060;-70
2023/12/15 05:59:17;;;;;;;36.47;16.25;;;;;;;;;;4986875;28;20723;-70
2023/12/15 06:01:43;;;;;;;40.60;16.30;;;;;;;;;;4987146;28;20081;-70
2023/12/15 06:04:10;;;;;;;34.63;15.55;;;;;;;;;;5004371;28;20061;-70
2023/12/15 06:06:35;;;;;;;34.10;15.73;;;;;;;;;;5004314;28;20126;-70
2023/12/15 06:09:02;;;;;;;31.20;15.75;;;;;;;;;;4987053;28;20886;-70
2023/12/15 06:11:28;;;;;;;31.08;15.05;;;;;;;;;;5004430;28;20703;-70
2023/12/15 06:13:54;;;;;;;41.30;15.43;;;;;;;;;;4985898;28;20069;-71
2023/12/15 06:16:21;;;;;;;38.50;17.25;;;;;;;;;;4986319;28;20405;-70
2023/12/15 06:18:48;;;;;;;32.40;14.13;;;;;;;;;;4985896;28;20126;-70
2023/12/15 06:21:24;;;;;;;41.60;15.80;;;;;;;;;;5003781;28;20420;-70
2023/12/15 06:23:50;;;;;;;37.08;15.57;;;;;;;;;;4986287;28;20045;-70
2023/12/15 06:26:20;;;;;;;42.15;15.40;;;;;;;;;;4986308;28;20463;-70
2023/12/15 06:28:46;;;;;;;34.53;14.77;;;;;;;;;;4986435;28;20068;-70
2023/12/15 06:31:12;;;;;;;33.90;14.82;;;;;;;;;;5004463;28;20038;-70
2023/12/15 06:33:38;;;;;;;28.58;13.95;;;;;;;;;;4969724;28;20117;-70
2023/12/15 06:36:04;;;;;;;37.78;14.20;;;;;;;;;;4986125;28;20175;-70
2023/12/15 06:38:30;;;;;;;34.28;15.48;;;;;;;;;;4985573;28;20489;-70
2023/12/15 06:40:56;;;;;;;33.72;14.35;;;;;;;;;;4986142;28;20103;-70
2023/12/15 06:43:22;;;;;;;31.02;14.07;;;;;;;;;;4987006;28;20073;-70
2023/12/15 06:45:49;;;;;;;30.77;13.90;;;;;;;;;;4986066;28;20045;-70
2023/12/15 06:48:15;;;;;;;34.67;14.18;;;;;;;;;;4985210;28;20096;-70
2023/12/15 06:50:41;;;;;;;34.63;13.70;;;;;;;;;;4986342;28;20034;-70
2023/12/15 06:53:06;;;;;;;38.17;14.50;;;;;;;;;;5003367;28;21188;-70
2023/12/15 06:55:32;;;;;;;29.73;14.30;;;;;;;;;;5003563;28;20042;-70
2023/12/15 06:57:58;;;;;;;32.15;14.85;;;;;;;;;;5002054;28;20532;-70
2023/12/15 07:00:24;;;;;;;34.58;15.27;;;;;;;;;;5003194;28;20153;-70
2023/12/15 07:02:51;;;;;;;42.67;14.98;;;;;;;;;;5003203;28;20061;-70
2023/12/15 07:05:17;;;;;;;37.13;14.55;;;;;;;;;;4985253;28;20058;-70
2023/12/15 07:07:43;;;;;;;40.60;15.65;;;;;;;;;;5003612;28;20056;-70
2023/12/15 07:10:09;;;;;;;31.85;13.43;;;;;;;;;;4981940;28;20046;-70
2023/12/15 07:12:35;;;;;;;34.15;14.73;;;;;;;;;;4986204;28;20053;-70
2023/12/15 07:15:00;;;;;;;30.77;14.73;;;5.70;99.90;;;;;;5002531;28;20062;-70
2023/12/15 07:17:26;;;;;;;27.77;12.75;;;;;;;;;;4985412;28;20061;-70
2023/12/15 07:19:52;;;;;;;35.80;13.40;;;;;;;;;;4984595;28;20060;-70
2023/12/15 07:22:18;;;;;;;37.72;14.10;;;;;;;;;;4985292;28;20041;-70
2023/12/15 07:24:44;;;;;;;27.80;12.77;;;;;;;;;;4983170;28;20583;-70
2023/12/15 07:27:10;;;;;;;33.50;14.15;;;;;;;;;;5003281;28;20046;-71
2023/12/15 07:29:36;;;;;;;26.40;12.40;;;;;;;;;;5002930;28;20041;-69
2023/12/15 07:32:02;;;;;;;28.20;12.00;;;;;;;;;;4984759;28;20692;-70
2023/12/15 07:34:28;;;;;;;24.63;11.75;;;;;;;;;;4983015;28;20081;-70
2023/12/15 07:36:54;;;;;;;31.05;12.70;;;;;;;;;;5002678;28;20049;-70
2023/12/15 07:39:21;;;;;;;34.78;11.50;;;;;;;;;;5003146;28;20037;-69
2023/12/15 07:41:48;;;;;;;23.40;11.90;;;;;;;;;;4984603;28;20897;-70
2023/12/15 07:44:14;;;;;;;31.30;12.15;;;;;;;;;;4983783;28;20046;-70
2023/12/15 07:46:40;;;;;;;35.28;13.02;;;;;;;;;;5000720;28;20084;-70
2023/12/15 07:49:06;;;;;;;25.13;11.15;;;;;;;;;;5002589;28;20049;-69
2023/12/15 07:51:32;;;;;;;27.20;11.43;;;;;;;;;;4982593;28;20038;-70
2023/12/15 07:53:58;;;;;;;35.63;11.75;;;;;;;;;;4984829;28;20523;-69
2023/12/15 07:56:25;;;;;;;25.83;11.68;;;;;;;;;;5003093;28;20052;-70
2023/12/15 07:58:55;;;;;;;31.67;10.88;;;;;;;;;;4983494;28;20049;-69
2023/12/15 08:01:22;;;;;;;27.35;11.05;;;;;;;;;;5002306;28;20042;-69
2023/12/15 08:03:48;;;;;;;32.50;12.00;;;;;;;;;;5002369;28;20085;-69
2023/12/15 08:06:15;;;;;;;25.50;10.50;;;;;;;;;;5001180;28;20095;-69
2023/12/15 08:08:42;;;;;;;45.83;13.07;;;;;;;;;;5004940;28;20497;-69
2023/12/15 08:11:09;;;;;;;36.90;11.85;;;;;;;;;;5005841;28;20046;-70
2023/12/15 08:13:35;;;;;;;37.53;12.07;;;;;;;;;;4987254;28;20045;-70
2023/12/15 08:16:03;;;;;;;32.22;11.77;;;;;;;;;;4986383;28;20205;-70
2023/12/15 08:18:29;;;;;;;30.80;12.27;;;;;;;;;;5005872;28;20775;-70
2023/12/15 08:20:55;;;;;;;37.35;12.10;;;;;;;;;;4987733;28;20384;-70
2023/12/15 08:23:22;;;;;;;31.65;9.38;;;;;;;;;;4988288;28;20124;-70
2023/12/15 08:25:48;;;;;;;32.20;11.35;;;;;;;;;;5006579;28;20060;-70
2023/12/15 08:28:14;;;;;;;30.75;11.27;;;;;;;;;;5005853;28;20081;-70
2023/12/15 08:30:40;;;;;;;27.30;10.65;;;;;;;;;;4980717;28;20049;-70
2023/12/15 08:33:06;;;;;;;29.50;11.68;;;;;;;;;;5003654;28;20564;-70
2023/12/15 08:35:32;;;;;;;35.25;10.65;;;;;;;;;;4988266;28;20038;-70
2023/12/15 08:37:58;;;;;;;34.55;10.93;;;;;;;;;;5005970;28;20060;-71
2023/12/15 08:40:25;;;;;;;30.67;10.77;;;;;;;;;;4972159;28;20158;-70
2023/12/15 08:42:51;;;;;;;40.38;11.73;;;;;;;;;;5005759;28;20050;-70
2023/12/15 08:45:17;;;;;;;32.95;11.38;;;;;;;;;;4987964;28;20459;-70
2023/12/15 08:47:43;;;;;;;32.80;10.10;;;;;;;;;;4987718;28;20053;-70
2023/12/15 08:50:09;;;;;;;34.05;10.43;;;;;;;;;;4987938;28;20042;-70
2023/12/15 08:52:35;;;;;;;33.25;10.48;;;;;;;;;;4987925;28;20517;-69
2023/12/15 08:55:01;;;;;;;26.63;9.82;;;;;;;;;;5005344;28;20044;-69
2023/12/15 08:57:27;;;;;;;29.30;10.55;;;;;;;;;;4987496;28;20366;-69
2023/12/15 08:59:54;;;;;;;33.30;10.80;;;;;;;;;;4988125;28;20050;-69
2023/12/15 09:02:20;;;;;;;28.98;9.38;;;;;;;;;;4987225;28;20060;-70
2023/12/15 09:04:46;;;;;;;32.10;10.35;;;;;;;;;;4987405;28;20050;-69
2023/12/15 09:07:12;;;;;;;35.03;10.50;;;;;;;;;;4983844;28;20057;-70
2023/12/15 09:09:39;;;;;;;26.92;9.38;;;;;;;;;;4984328;28;20046;-69
2023/12/15 09:12:06;;;;;;;33.72;9.80;;;;;;;;;;4986719;28;20172;-69
2023/12/15 09:14:32;;;;;;;30.05;8.98;;;;;;;;;;4983736;28;20058;-69
2023/12/15 09:17:00;;;;;;;34.05;9.65;;;;;;;;;;4981999;28;20843;-69
2023/12/15 09:19:27;;;;;;;33.17;9.52;;;;;;;;;;4982117;28;20038;-69
2023/12/15 09:21:53;;;;;;;33.08;9.10;;;;;;;;;;4985775;28;20034;-70
2023/12/15 09:24:19;;;;;;;34.75;9.80;;;;;;;;;;4976033;28;20060;-69
2023/12/15 09:26:46;;;;;;;28.10;10.80;;;;;;;;;;4977909;28;20070;-69
2023/12/15 09:29:12;;;;;;;38.67;9.40;;;;;;;;;;4985449;28;20061;-69
2023/12/15 09:31:38;;;;;;;31.77;9.82;;;;;;;;;;4985796;28;20089;-69
2023/12/15 09:34:05;;;;;;;24.17;8.90;;;;;;;;;;4984294;28;20054;-69
2023/12/15 09:36:31;;;;;;;28.02;9.43;;;;;;;;;;4983295;28;20084;-69
2023/12/15 09:38:57;;;;;;;26.88;9.02;;;;;;;;;;4983909;28;20125;-69
2023/12/15 09:41:23;;;;;;;28.52;8.70;;;;;;;;;;4984034;28;20747;-69
2023/12/15 09:43:49;;;;;;;28.08;8.23;;;;;;;;;;4986160;28;20048;-70
2023/12/15 09:46:15;;;;;;;23.50;8.70;;;;;;;;;;4985737;28;20552;-69
2023/12/15 09:48:41;;;;;;;31.60;9.20;;;7.50;99.90;;;;;;4983895;28;20050;-70
2023/12/15 09:51:09;;;;;;;26.52;9.43;;;;;;;;;;4981951;28;20487;-70
2023/12/15 09:53:36;;;;;;;30.55;8.77;;;;;;;;;;4981433;28;20051;-70
2023/12/15 09:56:03;;;;;;;37.78;7.63;;;;;;;;;;4984394;28;20104;-70
2023/12/15 09:58:29;;;;;;;28.48;8.23;;;;;;;;;;4983596;28;20478;-69
2023/12/15 10:00:55;;;;;;;27.77;7.88;;;;;;;;;;4984083;28;20405;-69
2023/12/15 10:03:21;;;;;;;28.77;8.75;;;;;;;;;;4983097;28;20050;-69
2023/12/15 10:05:47;;;;;;;36.35;8.43;;;7.90;99.90;;;;;;4980635;28;20109;-69
2023/12/15 10:08:13;;;;;;;27.35;7.53;;;;;;;;;;4982191;28;20051;-69
2023/12/15 10:10:39;;;;;;;28.25;8.50;;;;;;;;;;4983819;28;20413;-69
2023/12/15 10:13:05;;;;;;;22.23;7.35;;;;;;;;;;4983152;28;20053;-69
2023/12/15 10:15:31;;;;;;;28.83;8.27;;;;;;;;;;4983470;28;20528;-69
2023/12/15 10:17:58;;;;;;;33.58;7.97;;;;;;;;;;4983555;28;20046;-69
2023/12/15 10:20:25;;;;;;;42.15;8.60;;;;;;;;;;4982808;28;20034;-69
2023/12/15 10:23:04;;;;;;;41.90;8.10;;;;;;;;;;4983802;28;20497;-69
2023/12/15 10:25:31;;;;;;;36.67;7.38;;;;;;;;;;4984363;28;20053;-69
2023/12/15 10:27:57;;;;;;;28.95;8.40;;;;;;;;;;4985104;28;20124;-69
2023/12/15 10:30:22;;;;;;;22.23;5.90;;;8.20;99.90;;;;;;4966754;28;20125;-69
2023/12/15 10:32:48;;;;;;;25.35;6.07;;;;;;;;;;4983707;28;20042;-69
2023/12/15 10:35:14;;;;;;;27.85;7.20;;;;;;;;;;4981328;28;20100;-69
2023/12/15 10:37:44;;;;;;;30.95;7.00;;;;;;;;;;4983200;28;20160;-68
2023/12/15 10:40:11;;;;;;;30.10;8.13;;;;;;;;;;4978612;28;20050;-69
2023/12/15 10:42:38;;;;;;;38.95;7.22;;;;;;;;;;4982757;28;20058;-68
2023/12/15 10:45:07;;;;;;;30.75;6.70;;;;;;;;;;4975718;28;20044;-69
2023/12/15 10:47:34;;;;;;;30.98;7.43;;;;;;;;;;4965818;28;20046;-69
2023/12/15 10:50:01;;;;;;;27.95;6.68;;;;;;;;;;4984017;28;20048;-69
2023/12/15 10:52:27;;;;;;;36.13;7.55;;;;;;;;;;4966620;28;20244;-68
2023/12/15 10:54:54;;;;;;;34.42;8.80;;;;;;;;;;4984396;28;20038;-69
2023/12/15 10:57:20;;;;;;;30.25;6.90;;;;;;;;;;4983059;28;20050;-69
2023/12/15 10:59:48;;;;;;;33.42;7.35;;;;;;;;;;4982517;28;20050;-68
2023/12/15 11:02:16;;;;;;;27.80;5.97;;;;;;;;;;4983979;28;21210;-68
2023/12/15 11:04:42;;;;;;;28.58;7.05;;;;;;;;;;4983107;28;20042;-69
2023/12/15 11:07:09;;;;;;;27.42;6.07;;;;;;;;;;4984381;28;20901;-69
2023/12/15 11:09:36;;;;;;;36.17;7.03;;;;;;;;;;4984002;28;20042;-69
2023/12/15 11:12:23;;;;;;;29.42;6.95;;;;;;;;;;4964415;28;20042;-68
2023/12/15 11:14:53;;;;;;;34.25;7.13;;;;;;;;;;4980941;28;20632;-69
2023/12/15 11:17:20;;;;;;;29.50;7.75;;;;;;;;;;4980837;28;20462;-68
2023/12/15 11:19:48;;;;;;;35.15;7.80;;;;;;;;;;4982213;28;20061;-69
2023/12/15 11:22:17;;;;;;;30.65;6.45;;;;;;;;;;4979836;28;20074;-69
2023/12/15 11:24:43;;;;;;;36.58;8.80;;;;;;;;;;4980719;28;20073;-69
2023/12/15 11:27:12;;;;;;;36.17;7.70;;;;;;;;;;4975360;28;20083;-69
2023/12/15 11:29:38;;;;;;;32.58;6.85;;;;;;;;;;4980204;28;20053;-69
2023/12/15 11:32:23;;;;;;;27.42;7.20;;;;;;;;;;4982043;28;20054;-68
2023/12/15 11:34:49;;;;;;;39.15;7.43;;;8.80;99.90;;;;;;4981092;28;20039;-68
2023/12/15 11:37:15;;;;;;;20.67;7.03;;;;;;;;;;4979749;28;20046;-69
2023/12/15 11:39:41;;;;;;;23.83;6.53;;;;;;;;;;4982450;28;20116;-69
2023/12/15 11:42:08;;;;;;;29.67;5.82;;;;;;;;;;4976212;28;20046;-68
2023/12/15 11:44:34;;;;;;;33.72;8.25;;;8.90;99.90;;;;;;4982734;28;20138;-68
2023/12/15 11:47:01;;;;;;;25.38;6.80;;;;;;;;;;4982149;28;20646;-69
2023/12/15 11:49:27;;;;;;;33.17;6.63;;;;;;;;;;4981305;28;20045;-68
2023/12/15 11:51:53;;;;;;;30.83;6.45;;;;;;;;;;4978955;28;20101;-68
2023/12/15 11:54:19;;;;;;;24.90;6.28;;;;;;;;;;4982454;28;20152;-69
2023/12/15 11:56:45;;;;;;;32.72;7.97;;;;;;;;;;4983765;28;20210;-68
2023/12/15 11:59:11;;;;;;;31.00;6.18;;;;;;;;;;4982614;28;20046;-69
2023/12/15 12:01:38;;;;;;;32.38;8.10;;;9.20;99.90;;;;;;4982349;28;20124;-69
2023/12/15 12:04:05;;;;;;;31.38;8.43;;;;;;;;;;4982249;28;20053;-68
2023/12/15 12:06:32;;;;;;;33.22;7.60;;;;;;;;;;4981572;28;20073;-69
2023/12/15 12:08:58;;;;;;;36.65;6.95;;;;;;;;;;4983682;28;20082;-69
2023/12/15 12:11:24;;;;;;;37.63;7.03;;;;;;;;;;4981490;28;20042;-69
2023/12/15 12:13:57;;;;;;;29.10;5.72;;;;;;;;;;4982229;28;20398;-68
2023/12/15 12:16:23;;;;;;;29.52;6.93;;;;;;;;;;4983710;28;20060;-69
2023/12/15 12:18:49;;;;;;;23.13;6.20;;;;;;;;;;4982818;28;20049;-69
2023/12/15 12:21:16;;;;;;;39.35;8.20;;;9.40;99.90;;;;;;5002534;28;20412;-69
2023/12/15 12:23:42;;;;;;;26.02;5.90;;;;;;;;;;5002366;28;20049;-69
2023/12/15 12:26:08;;;;;;;27.70;6.75;;;;;;;;;;5001790;28;20489;-69
2023/12/15 12:28:38;;;;;;;21.15;5.88;;;;;;;;;;4985132;28;20057;-69
2023/12/15 12:31:04;;;;;;;30.45;6.82;;;;;;;;;;4984305;28;20156;-69
2023/12/15 12:33:30;;;;;;;27.80;8.77;;;9.80;99.90;;;;;;4967963;28;20042;-69
2023/12/15 12:35:57;;;;;;;27.52;6.00;;;;;;;;;;4984285;28;20703;-69
2023/12/15 12:38:22;;;;;;;27.52;6.97;;;;;;;;;;4984392;28;20056;-69
2023/12/15 12:40:48;;;;;;;29.38;6.30;;;;;;;;;;4985120;28;20045;-69
2023/12/15 12:43:14;;;;;;;29.10;7.68;;;;;;;;;;4983038;28;20529;-69
2023/12/15 12:45:42;;;;;;;34.20;7.40;;;;;;;;;;4983883;28;20049;-69
2023/12/15 12:48:08;;;;;;;33.30;6.25;;;;;;;;;;4984590;28;20054;-69
2023/12/15 12:50:34;;;;;;;33.50;8.07;;;;;;;;;;4983685;28;20564;-69
2023/12/15 12:53:00;;;;;;;43.72;7.78;;;;;;;;;;4983094;28;20466;-73
2023/12/15 12:55:28;;;;;;;24.17;6.30;;;;;;;;;;4966951;28;20046;-73
2023/12/15 12:57:53;;;;;;;29.90;6.65;;;;;;;;;;4988549;28;20791;-73
2023/12/15 13:00:20;;;;;;;29.10;6.68;;;;;;;;;;4984234;28;20054;-73
2023/12/15 13:02:46;;;;;;;28.05;5.82;;;;;;;;;;4987708;28;20052;-73
2023/12/15 13:05:12;;;;;;;24.42;6.25;;;;;;;;;;4975098;28;20056;-73
2023/12/15 13:07:38;;;;;;;32.33;6.70;;;;;;;;;;4967366;28;20061;-73
2023/12/15 13:10:05;;;;;;;27.92;6.95;;;;;;;;;;4988179;28;20124;-73
2023/12/15 13:12:31;;;;;;;26.42;5.50;;;;;;;;;;5005158;28;20798;-74
2023/12/15 13:14:57;;;;;;;30.23;7.18;;;;;;;;;;4987493;28;20108;-73
2023/12/15 13:17:23;;;;;;;30.92;5.72;;;;;;;;;;4986723;28;20822;-74
2023/12/15 13:19:49;;;;;;;30.42;5.03;;;;;;;;;;4987479;28;20046;-73
2023/12/15 13:22:15;;;;;;;27.73;5.63;;;;;;;;;;4987683;28;20076;-73
2023/12/15 13:24:43;;;;;;;29.83;5.65;;;;;;;;;;5005329;28;20050;-73
2023/12/15 13:27:09;;;;;;;25.33;5.65;;;;;;;;;;4987315;28;20128;-74
2023/12/15 13:29:35;;;;;;;22.92;5.68;;;;;;;;;;4987456;28;20038;-73
2023/12/15 13:32:01;;;;;;;28.33;6.50;;;;;;;;;;5005398;28;20092;-73
2023/12/15 13:34:28;;;;;;;26.05;4.88;;;;;;;;;;4987836;28;20390;-72
2023/12/15 13:36:54;;;;;;;20.30;5.60;;;;;;;;;;4987606;28;20054;-73
2023/12/15 13:39:20;;;;;;;32.20;5.45;;;;;;;;;;4987442;28;20103;-73
2023/12/15 13:41:48;;;;;;;30.65;6.57;;;;;;;;;;5005327;28;20069;-73
2023/12/15 13:44:15;;;;;;;26.38;6.20;;;;;;;;;;4987402;28;20123;-73
2023/12/15 13:46:41;;;;;;;24.02;5.40;;;;;;;;;;4987692;28;20045;-73
2023/12/15 13:49:07;;;;;;;29.10;6.03;;;;;;;;;;5005498;28;20050;-74
2023/12/15 13:51:33;;;;;;;23.83;6.72;;;;;;;;;;4986797;28;20410;-73
2023/12/15 13:53:59;;;;;;;30.10;5.57;;;;;;;;;;4986937;28;20049;-73
2023/12/15 13:56:26;;;;;;;26.92;5.90;;;;;;;;;;5004573;28;20049;-74
2023/12/15 13:58:53;;;;;;;28.33;6.20;;;;;;;;;;4985214;28;20056;-74
2023/12/15 14:01:19;;;;;;;20.95;5.40;;;;;;;;;;4979418;28;20487;-74
2023/12/15 14:03:45;;;;;;;25.85;6.22;;;;;;;;;;4984942;28;20220;-74
2023/12/15 14:06:12;;;;;;;24.50;5.47;;;;;;;;;;4973776;28;20062;-72
2023/12/15 14:08:39;;;;;;;25.35;5.50;;;;;;;;;;5003914;28;20082;-73
2023/12/15 14:11:05;;;;;;;22.52;6.45;;;;;;;;;;4987189;28;20050;-74